Time;durP1;ratioP1;P1;durP2;ratioP2;P2;SDS_P1;SDS_P2;PMS_P1;PMS_P2;Temp;Humidity;BMP_temperature;BMP_pressure;BME280_temperature;BME280_humidity;BME280_pressure;Samples;Min_cycle;Max_cycle;Signal;HPM_P1;HPM_P2
2022/09/29 00:01:22;;;;;;;13.57;5.53;;;;;;;5.92;100.00;100051.94;5115815;28;20042;-72
2022/09/29 00:03:47;;;;;;;9.07;4.78;;;;;;;5.93;100.00;100054.44;5115344;28;20028;-72
2022/09/29 00:06:15;;;;;;;6.55;4.55;;;;;;;5.94;100.00;100055.28;5115963;28;20032;-72
2022/09/29 00:08:41;;;;;;;7.63;4.47;;;;;;;5.98;100.00;100062.00;5115701;28;20097;-73
2022/09/29 00:11:09;;;;;;;10.52;4.70;;;;;;;5.98;100.00;100059.38;5115846;28;20337;-72
2022/09/29 00:13:34;;;;;;;7.97;4.75;;;;;;;5.99;100.00;100064.53;5115424;28;20383;-72
2022/09/29 00:16:01;;;;;;;7.65;4.40;;;;;;;5.99;100.00;100064.53;5115843;28;20111;-73
2022/09/29 00:18:28;;;;;;;7.38;4.50;;;;;;;5.98;100.00;100057.56;5115772;28;20468;-72
2022/09/29 00:20:56;;;;;;;5.15;4.07;;;;;;;5.97;100.00;100061.19;5113610;28;20055;-73
2022/09/29 00:23:26;;;;;;;8.32;4.32;;;;;;;5.98;100.00;100059.38;5115597;28;20034;-71
2022/09/29 00:26:04;;;;;;;8.70;4.40;;;;;;;5.98;100.00;100062.00;5115388;28;20031;-72
2022/09/29 00:28:30;;;;;;;9.93;4.88;;;;;;;5.99;100.00;100055.78;5115531;28;20138;-72
2022/09/29 00:30:59;;;;;;;7.95;3.80;;;;;;;5.98;100.00;100054.09;5115439;28;20037;-72
2022/09/29 00:33:24;;;;;;;5.35;4.10;;;;;;;5.94;100.00;100058.78;5115367;28;20027;-72
2022/09/29 00:36:02;;;;;;;7.93;4.28;;;;;;;5.98;100.00;100049.63;5115343;28;20034;-72
2022/09/29 00:38:28;;;;;;;10.50;4.35;;;;;;;6.00;100.00;100055.66;5115466;28;20036;-72
2022/09/29 00:40:54;;;;;;;5.30;3.63;;;;;;;5.97;100.00;100058.53;5115208;28;20494;-72
2022/09/29 00:43:22;;;;;;;7.78;3.85;;;;;;;5.96;100.00;100059.47;5115059;28;20035;-72
2022/09/29 00:45:52;;;;;;;5.78;3.72;;;;;;;5.92;100.00;100055.41;5115005;28;20064;-72
2022/09/29 00:48:27;;;;;;;5.57;3.88;;;;;;;5.86;100.00;100058.56;5115444;28;20352;-73
2022/09/29 00:50:55;;;;;;;5.18;3.40;;;;;;;5.79;100.00;100052.97;5115519;28;20069;-72
2022/09/29 00:53:22;;;;;;;8.90;4.40;;;;;;;5.74;100.00;100054.31;5115241;28;20023;-72
2022/09/29 00:56:08;;;;;;;5.00;3.30;;;;;;;5.68;100.00;100054.81;5114836;28;20035;-72
2022/09/29 00:58:44;;;;;;;5.93;3.92;;;;;;;5.66;100.00;100047.03;5114620;28;20027;-72
2022/09/29 01:01:12;;;;;;;3.78;3.38;;;;;;;5.63;100.00;100050.75;5114846;28;20103;-72
2022/09/29 01:03:45;;;;;;;8.88;4.30;;;;;;;5.63;100.00;100050.75;5114660;28;20035;-72
2022/09/29 01:06:22;;;;;;;12.82;5.20;;;;;;;5.67;100.00;100055.78;5114353;28;20527;-72
2022/09/29 01:08:56;;;;;;;12.32;5.63;;;;;;;5.76;100.00;100052.38;5114828;28;20039;-72
2022/09/29 01:11:23;;;;;;;12.15;5.82;;;;;;;5.83;100.00;100048.25;5114794;28;20035;-72
2022/09/29 01:13:49;;;;;;;6.63;4.50;;;;;;;5.85;100.00;100054.22;5114424;28;20114;-74
2022/09/29 01:16:15;;;;;;;8.70;5.25;;;;;;;5.88;100.00;100051.38;5114266;28;20035;-72
2022/09/29 01:18:42;;;;;;;8.93;5.25;;;;;;;5.93;100.00;100045.69;5114492;28;20031;-72
2022/09/29 01:21:22;;;;;;;15.52;6.22;;;;;;;5.99;100.00;100045.22;5113930;28;20106;-72
2022/09/29 01:24:18;;;;;;;12.90;6.43;;;;;;;6.05;100.00;100055.25;5114469;28;20070;-71
2022/09/29 01:27:21;;;;;;;11.95;5.57;;;;;;;6.08;100.00;100052.34;5114811;28;20088;-72
2022/09/29 01:29:59;;;;;;;13.05;6.05;;;;;;;6.07;100.00;100055.13;5051190;28;20086;-72
2022/09/29 01:33:04;;;;;;;8.98;5.35;;;;;;;5.99;100.00;100048.69;5051494;28;20231;-72
2022/09/29 01:36:04;;;;;;;8.63;4.78;;;;;;;5.90;100.00;100052.06;5059513;28;20092;-72
2022/09/29 01:39:05;;;;;;;12.00;5.70;;;;;;;5.77;100.00;100056.69;5100520;28;20063;-72
2022/09/29 01:41:50;;;;;;;7.10;4.90;;;;;;;5.65;100.00;100058.53;5113832;28;20471;-72
2022/09/29 01:44:31;;;;;;;10.20;5.25;;;;;;;5.53;100.00;100052.47;5114183;28;20269;-72
2022/09/29 01:47:03;;;;;;;8.63;5.43;;;;;;;5.47;100.00;100058.25;5114218;28;20035;-72
2022/09/29 01:49:34;;;;;;;5.50;3.83;;;;;;;5.35;100.00;100054.81;5114538;28;20027;-72
2022/09/29 01:52:06;;;;;;;5.82;3.95;;;;;;;5.25;100.00;100049.41;5114104;28;20114;-72
2022/09/29 01:55:04;;;;;;;8.80;5.30;;;;;;;5.22;100.00;100049.66;5113842;28;20032;-71
2022/09/29 01:57:39;;;;;;;9.15;5.13;;;;;;;5.20;100.00;100050.78;5113813;28;20051;-71
2022/09/29 02:00:10;;;;;;;9.25;5.15;;;;;;;5.19;100.00;100057.00;5113677;28;20087;-72
2022/09/29 02:02:42;;;;;;;11.00;5.32;;;;;;;5.14;100.00;100049.47;5114300;28;20110;-72
2022/09/29 02:05:15;;;;;;;7.05;5.32;;;;;;;5.09;100.00;100054.25;5113872;28;20062;-72
2022/09/29 02:07:44;;;;;;;7.60;4.80;;;;;;;5.02;100.00;100053.91;5114325;28;20452;-72
2022/09/29 02:10:16;;;;;;;10.55;5.60;;;;;;;4.95;100.00;100052.72;5113508;28;20035;-72
2022/09/29 02:12:43;;;;;;;4.40;3.78;;;;;;;4.88;100.00;100047.13;5113386;28;20031;-72
2022/09/29 02:15:13;;;;;;;5.90;3.90;;;;;;;4.83;100.00;100053.72;5113923;28;20027;-72
2022/09/29 02:17:44;;;;;;;5.57;4.05;;;;;;;4.80;100.00;100054.78;5113268;28;20102;-72
2022/09/29 02:20:11;;;;;;;9.27;5.15;;;;;;;4.79;100.00;100055.72;5113347;28;20491;-72
2022/09/29 02:22:37;;;;;;;9.93;5.72;;;;;;;4.76;100.00;100058.59;5113823;28;20069;-71
2022/09/29 02:25:03;;;;;;;6.38;4.43;;;;;;;4.70;100.00;100059.94;5113560;28;20472;-72
2022/09/29 02:27:32;;;;;;;8.05;5.50;;;;;;;4.66;100.00;100063.78;5118646;28;20424;-73
2022/09/29 02:29:58;;;;;;;8.00;5.53;;;;;;;4.62;100.00;100062.34;5120246;28;20035;-72
2022/09/29 02:32:24;;;;;;;9.77;5.05;;;;;;;4.56;100.00;100058.38;5120271;28;20425;-73
2022/09/29 02:34:52;;;;;;;7.57;5.20;;;;;;;4.48;100.00;100052.03;5120155;28;20035;-73
2022/09/29 02:37:40;;;;;;;8.30;4.35;;;;;;;4.44;100.00;100054.06;5120232;28;20387;-73
2022/09/29 02:40:20;;;;;;;9.63;5.80;;;;;;;4.39;100.00;100054.44;5120860;28;20055;-74
2022/09/29 02:43:04;;;;;;;7.57;5.20;;;;;;;4.39;100.00;100050.97;5120548;28;20028;-73
2022/09/29 02:45:32;;;;;;;10.23;6.05;;;;;;;4.36;100.00;100051.16;5120329;28;20050;-73
2022/09/29 02:48:06;;;;;;;7.75;5.57;;;;;;;4.37;100.00;100055.50;5120118;28;20031;-73
2022/09/29 02:50:58;;;;;;;7.78;5.15;;;;;;;4.33;100.00;100054.03;5120062;28;20031;-73
2022/09/29 02:53:31;;;;;;;10.32;5.57;;;;;;;4.29;100.00;100061.34;5120778;28;20039;-73
2022/09/29 02:56:03;;;;;;;8.65;5.45;;;;;;;4.21;100.00;100055.81;5120348;28;20058;-73
2022/09/29 02:58:42;;;;;;;6.82;4.60;;;;;;;4.11;100.00;100058.34;5120091;28;20038;-73
2022/09/29 03:01:08;;;;;;;9.32;5.88;;;;;;;4.05;100.00;100064.06;5120413;28;20027;-73
2022/09/29 03:03:33;;;;;;;9.30;5.55;;;;;;;3.98;100.00;100061.03;5119688;28;20024;-72
2022/09/29 03:05:58;;;;;;;7.75;4.90;;;;;;;3.96;100.00;100059.50;5119629;28;20108;-72
2022/09/29 03:08:24;;;;;;;5.60;4.20;;;;;;;3.93;100.00;100065.00;5120189;27;20089;-73
2022/09/29 03:10:49;;;;;;;7.40;5.47;;;;;;;3.88;100.00;100060.91;5120018;28;20375;-73
2022/09/29 03:13:15;;;;;;;12.63;6.63;;;;;;;3.89;100.00;100067.00;5119744;28;20038;-73
2022/09/29 03:15:40;;;;;;;10.90;6.15;;;;;;;3.95;100.00;100060.44;5119476;28;20035;-71
2022/09/29 03:18:06;;;;;;;11.48;6.55;;;;;;;3.98;100.00;100070.75;5118576;28;20059;-72
2022/09/29 03:20:31;;;;;;;8.60;5.93;;;;;;;3.97;100.00;100072.53;5118378;28;20051;-71
2022/09/29 03:22:57;;;;;;;7.82;4.82;;;;;;;3.95;100.00;100074.44;5120236;28;20059;-72
2022/09/29 03:25:23;;;;;;;6.72;4.60;;;;;;;3.94;100.00;100077.19;5119609;28;20031;-72
2022/09/29 03:27:49;;;;;;;7.15;4.60;;;;;;;3.86;100.00;100068.06;5119680;28;20111;-71
2022/09/29 03:30:15;;;;;;;6.63;4.57;;;;;;;3.84;100.00;100075.25;5119981;28;20028;-72
2022/09/29 03:32:42;;;;;;;8.93;5.70;;;;;;;3.82;100.00;100068.41;5119688;28;20383;-72
2022/09/29 03:35:08;;;;;;;10.07;5.35;;;;;;;3.82;100.00;100073.66;5119819;28;20047;-72
2022/09/29 03:37:33;;;;;;;10.05;5.18;;;;;;;3.81;100.00;100074.66;5118141;28;20028;-72
2022/09/29 03:39:59;;;;;;;7.88;4.95;;;;;;;3.77;100.00;100076.66;5116340;28;20375;-72
2022/09/29 03:42:27;;;;;;;5.75;4.10;;;;;;;3.71;100.00;100077.09;5116208;28;20036;-72
2022/09/29 03:44:52;;;;;;;6.43;4.10;;;;;;;3.68;100.00;100078.16;5115817;28;20063;-72
2022/09/29 03:47:17;;;;;;;6.93;4.38;;;;;;;3.63;100.00;100080.31;5116124;28;20111;-72
2022/09/29 03:49:42;;;;;;;7.97;4.63;;;;;;;3.60;100.00;100077.91;5116688;28;20069;-72
2022/09/29 03:52:08;;;;;;;7.45;5.43;;;;;;;3.57;100.00;100079.91;5116171;28;20460;-73
2022/09/29 03:54:33;;;;;;;6.82;4.80;;;;;;;3.57;100.00;100083.41;5116048;28;20385;-71
2022/09/29 03:56:58;;;;;;;8.05;5.15;;;;;;;3.53;100.00;100081.94;5116038;28;20051;-71
2022/09/29 03:59:24;;;;;;;8.60;5.70;;;;;;;3.57;100.00;100082.53;5115615;28;20028;-71
2022/09/29 04:01:49;;;;;;;13.55;7.75;;;;;;;3.60;100.00;100080.53;5114603;28;20023;-71
2022/09/29 04:04:14;;;;;;;10.50;5.78;;;;;;;3.62;100.00;100083.88;5115759;28;20115;-72
2022/09/29 04:06:40;;;;;;;9.15;5.75;;;;;;;3.57;100.00;100077.28;5115808;28;20371;-71
2022/09/29 04:09:05;;;;;;;7.53;5.05;;;;;;;3.52;100.00;100081.09;5115808;28;20472;-71
2022/09/29 04:11:30;;;;;;;6.70;4.72;;;;;;;3.49;100.00;100083.09;5115587;28;20100;-71
2022/09/29 04:13:56;;;;;;;5.90;4.63;;;;;;;3.46;100.00;100086.81;5114430;28;20542;-71
2022/09/29 04:16:21;;;;;;;6.40;5.20;;;;;;;3.42;100.00;100082.72;5115885;28;20117;-71
2022/09/29 04:18:46;;;;;;;5.53;4.60;;;;;;;3.41;100.00;100085.47;5115329;28;20139;-71
2022/09/29 04:21:12;;;;;;;6.15;4.47;;;;;;;3.40;100.00;100092.50;5115876;28;20502;-71
2022/09/29 04:23:37;;;;;;;5.43;4.40;;;;;;;3.35;100.00;100086.75;5115351;28;20504;-72
2022/09/29 04:26:03;;;;;;;6.85;4.78;;;;;;;3.32;100.00;100097.50;5115196;28;20540;-71
2022/09/29 04:28:34;;;;;;;5.28;4.25;;;;;;;3.30;100.00;100102.84;5116086;28;20110;-72
2022/09/29 04:30:59;;;;;;;8.95;5.10;;;;;;;3.28;100.00;100102.09;5113885;28;20471;-71
2022/09/29 04:33:25;;;;;;;5.50;4.13;;;;;;;3.34;100.00;100106.09;5115194;28;20043;-73
2022/09/29 04:35:50;;;;;;;5.53;4.05;;;;;;;3.33;100.00;100102.63;5115352;28;20566;-71
2022/09/29 04:38:16;;;;;;;5.68;3.92;;;;;;;3.31;100.00;100099.28;5114040;28;20536;-71
2022/09/29 04:40:41;;;;;;;6.45;3.65;;;;;;;3.31;100.00;100101.06;5115876;28;20032;-72
2022/09/29 04:43:07;;;;;;;8.40;5.20;;;;;;;3.33;100.00;100109.69;5115168;28;20027;-71
2022/09/29 04:45:32;;;;;;;14.38;4.85;;;;;;;3.34;100.00;100111.34;5114957;28;20034;-71
2022/09/29 04:47:57;;;;;;;14.27;6.60;;;;;;;3.38;100.00;100112.00;5115120;28;20067;-73
2022/09/29 04:50:23;;;;;;;9.90;6.05;;;;;;;3.38;100.00;100119.88;5113790;28;20131;-71
2022/09/29 04:52:48;;;;;;;10.93;6.70;;;;;;;3.37;100.00;100116.38;5114028;28;20035;-71
2022/09/29 04:55:14;;;;;;;8.93;6.05;;;;;;;3.32;100.00;100118.53;5114939;28;20435;-71
2022/09/29 04:57:42;;;;;;;7.95;4.60;;;;;;;3.28;100.00;100120.50;5114806;28;20491;-71
2022/09/29 05:00:09;;;;;;;9.30;5.57;;;;;;;3.28;100.00;100127.56;5114869;28;20092;-73
2022/09/29 05:02:35;;;;;;;9.88;6.60;;;;;;;3.30;100.00;100133.53;5114893;28;20422;-71
2022/09/29 05:05:00;;;;;;;8.48;5.35;;;;;;;3.31;100.00;100135.25;5114751;28;20036;-73
2022/09/29 05:07:26;;;;;;;12.55;7.30;;;;;;;3.32;100.00;100142.19;5114746;28;20028;-74
2022/09/29 05:09:51;;;;;;;10.80;6.00;;;;;;;3.34;100.00;100148.16;5114645;28;20032;-71
2022/09/29 05:12:17;;;;;;;14.98;7.55;;;;;;;3.33;100.00;100143.88;5114426;28;20456;-73
2022/09/29 05:14:42;;;;;;;16.70;9.32;;;;;;;3.34;100.00;100142.91;5114389;28;20035;-73
2022/09/29 05:17:08;;;;;;;14.02;7.32;;;;;;;3.34;100.00;100142.91;5114916;28;20118;-71
2022/09/29 05:19:33;;;;;;;11.90;7.25;;;;;;;3.28;100.00;100138.91;5113137;28;20030;-71
2022/09/29 05:21:59;;;;;;;10.98;6.47;;;;;;;3.23;100.00;100142.84;5114532;28;20130;-71
2022/09/29 05:24:25;;;;;;;15.40;8.68;;;;;;;3.23;100.00;100151.56;5114195;28;20024;-74
2022/09/29 05:26:50;;;;;;;13.45;7.10;;;;;;;3.23;100.00;100146.31;5114146;28;20467;-73
2022/09/29 05:29:16;;;;;;;12.18;6.82;;;;;;;3.20;100.00;100143.06;5114047;28;20035;-71
2022/09/29 05:31:41;;;;;;;14.98;7.47;;;;;;;3.15;100.00;100149.47;5114221;28;20027;-73
2022/09/29 05:34:07;;;;;;;19.08;8.77;;;;;;;3.16;100.00;100159.06;5114294;28;20044;-73
2022/09/29 05:36:32;;;;;;;13.32;7.82;;;;;;;3.14;100.00;100152.22;5114355;28;20067;-73
2022/09/29 05:38:58;;;;;;;13.55;7.65;;;;;;;3.12;100.00;100149.69;5114171;28;20039;-72
2022/09/29 05:41:23;;;;;;;17.65;9.82;;;;;;;3.14;100.00;100158.31;5114203;28;20036;-73
2022/09/29 05:43:50;;;;;;;14.30;8.20;;;;;;;3.14;100.00;100157.47;5113326;28;20110;-74
2022/09/29 05:46:18;;;;;;;18.30;10.40;;;;;;;3.17;100.00;100155.47;5114024;28;20464;-71
2022/09/29 05:48:48;;;;;;;20.73;10.77;;;;;;;3.29;100.00;100160.81;5114205;28;20047;-72
2022/09/29 05:51:16;;;;;;;28.42;13.02;;;;;;;3.39;100.00;100168.88;5113202;28;20028;-72
2022/09/29 05:53:42;;;;;;;24.10;12.48;;;;;;;3.52;100.00;100167.06;5114238;28;20031;-71
2022/09/29 05:56:14;;;;;;;46.17;18.85;;;;;;;3.70;100.00;100165.75;5114527;28;20035;-71
2022/09/29 05:58:40;;;;;;;33.78;17.63;;;;;;;3.93;100.00;100168.47;5113812;28;20155;-71
2022/09/29 06:01:12;;;;;;;41.35;20.67;;;;;;;4.10;100.00;100167.22;5112476;28;20079;-71
2022/09/29 06:03:38;;;;;;;35.38;18.33;;;;;;;4.24;100.00;100172.31;5113563;28;20023;-70
2022/09/29 06:06:06;;;;;;;38.22;17.48;;;;;;;4.40;100.00;100168.53;5113711;28;20035;-71
2022/09/29 06:08:32;;;;;;;53.70;20.05;;;;;;;4.51;100.00;100167.69;5113588;28;20089;-70
2022/09/29 06:11:03;;;;;;;36.67;19.25;;;;;;;4.63;100.00;100164.16;5113459;28;20177;-70
2022/09/29 06:13:28;;;;;;;38.47;19.83;;;;;;;4.71;100.00;100158.28;5113255;28;20035;-71
2022/09/29 06:15:53;;;;;;;44.95;21.25;;;;;;;4.78;100.00;100172.69;5113107;28;20039;-71
2022/09/29 06:18:19;;;;;;;42.80;20.88;;;;;;;4.84;100.00;100169.56;5113235;28;20101;-71
2022/09/29 06:20:46;;;;;;;37.25;20.25;;;;;;;4.89;100.00;100180.59;5113014;28;20365;-72
2022/09/29 06:23:11;;;;;;;37.70;20.90;;;;;;;4.92;100.00;100182.16;5113148;28;20028;-72
2022/09/29 06:25:37;;;;;;;41.80;21.23;;;;;;;4.98;100.00;100189.59;5113026;28;20041;-72
2022/09/29 06:28:02;;;;;;;63.10;23.85;;;;;;;5.04;100.00;100183.00;5113249;28;20436;-72
2022/09/29 06:30:27;;;;;;;87.00;22.67;;;;;;;5.12;100.00;100183.25;5111458;28;20119;-71
2022/09/29 06:32:54;;;;;;;53.28;22.20;;;;;;;5.17;100.00;100186.38;5112997;28;20028;-72
2022/09/29 06:38:03;;;;;;;118.40;20.90;;;;;;;5.30;100.00;100191.53;5113615;28;20046;-72
2022/09/29 06:40:28;;;;;;;79.30;20.17;;;;;;;5.32;100.00;100199.31;5113339;28;20031;-71
2022/09/29 06:42:54;;;;;;;121.47;21.50;;;;;;;5.33;100.00;100208.88;5112933;28;20055;-71
2022/09/29 06:45:19;;;;;;;79.15;19.95;;;;;;;5.35;100.00;100196.44;5112969;28;20042;-71
2022/09/29 06:47:45;;;;;;;68.35;21.33;;;;;;;5.40;100.00;100202.16;5112846;28;20063;-73
2022/09/29 06:50:10;;;;;;;58.30;21.67;;;;;;;5.48;100.00;100208.53;5111722;28;20028;-70
2022/09/29 06:52:35;;;;;;;61.55;20.88;;;;;;;5.55;100.00;100216.78;5113043;28;20032;-72
2022/09/29 06:55:01;;;;;;;81.97;22.40;;;;;;;5.62;100.00;100211.88;5112996;28;20052;-72
2022/09/29 06:57:26;;;;;;;53.08;20.67;;;;;;;5.71;100.00;100215.56;5113154;28;20066;-71
2022/09/29 06:59:52;;;;;;;45.97;21.25;;;;;;;5.76;100.00;100214.25;5112826;28;20107;-71
2022/09/29 07:02:17;;;;;;;83.38;21.38;;;;;;;5.82;100.00;100220.81;5112591;28;20062;-71
2022/09/29 07:04:43;;;;;;;60.60;20.75;;;;;;;5.91;100.00;100221.88;5113067;28;20027;-72
2022/09/29 07:07:08;;;;;;;58.17;21.40;;;;;;;6.00;100.00;100229.09;5112802;28;20032;-72
2022/09/29 07:09:33;;;;;;;90.07;23.38;;;;;;;6.10;100.00;100223.91;5112811;28;20111;-71
2022/09/29 07:11:59;;;;;;;51.00;22.17;;;;;;;6.21;100.00;100229.16;5112690;28;20032;-72
2022/09/29 07:14:24;;;;;;;61.20;20.75;;;;;;;6.31;100.00;100229.22;5114865;28;20036;-72
2022/09/29 07:16:50;;;;;;;68.72;21.92;;;;;;;6.40;100.00;100228.47;5115356;28;20035;-72
2022/09/29 07:19:17;;;;;;;70.50;20.60;;;;;;;6.51;100.00;100232.88;5116881;28;20111;-71
2022/09/29 07:21:43;;;;;;;46.97;19.13;;;;;;;6.51;100.00;100233.72;5117016;28;20083;-72
2022/09/29 07:24:09;;;;;;;57.40;19.83;;;;;;;6.52;100.00;100238.03;5116930;28;20517;-71
2022/09/29 07:26:35;;;;;;;80.78;20.33;;;;;;;6.62;100.00;100231.97;5116378;28;20106;-72
2022/09/29 07:29:00;;;;;;;59.65;21.05;;;;;;;6.68;100.00;100231.47;5115110;28;20073;-72
2022/09/29 07:31:26;;;;;;;69.32;22.23;;;;;;;6.67;100.00;100243.84;5116700;28;20024;-72
2022/09/29 07:33:52;;;;;;;48.33;21.88;;;;;;;6.71;100.00;100247.88;5114777;28;20054;-72
2022/09/29 07:36:18;;;;;;;58.95;21.88;;;;;;;6.81;100.00;100247.16;5116131;28;20034;-72
2022/09/29 07:38:46;;;;;;;44.80;22.45;;;;;;;6.91;100.00;100249.84;5114820;28;20052;-72
2022/09/29 07:41:12;;;;;;;42.20;22.63;;;;;;;7.09;100.00;100253.59;5116049;28;20032;-72
2022/09/29 07:43:38;;;;;;;47.80;25.42;;;;;;;7.30;100.00;100261.47;5115602;28;20032;-72
2022/09/29 07:46:04;;;;;;;37.67;22.42;;;;;;;7.47;100.00;100261.84;5116498;28;20031;-72
2022/09/29 07:48:31;;;;;;;66.05;24.52;;;;;;;7.63;100.00;100258.66;5115942;28;20039;-71
2022/09/29 07:51:10;;;;;;;53.67;22.73;;;;;;;7.75;100.00;100263.75;5115871;28;20066;-72
2022/09/29 07:53:35;;;;;;;53.72;21.67;;;;;;;7.86;100.00;100268.09;5116122;27;20035;-72
2022/09/29 07:56:12;;;;;;;36.53;20.05;;;;;;;8.01;100.00;100268.53;5115859;28;20035;-72
2022/09/29 07:58:38;;;;;;;40.03;20.75;;;;;;;8.11;100.00;100274.69;5116464;28;20107;-72
2022/09/29 08:01:09;;;;;;;34.88;21.10;;;;;;;8.32;100.00;100283.53;5115670;28;20155;-72
2022/09/29 08:03:34;;;;;;;33.83;18.30;;;;;;;8.50;100.00;100278.41;5115930;28;20364;-72
2022/09/29 08:05:59;;;;;;;32.58;18.38;;;;;;;8.59;100.00;100285.53;5114346;28;20036;-72
2022/09/29 08:08:25;;;;;;;33.05;18.63;;;;;;;8.68;100.00;100281.19;5115282;28;20043;-71
2022/09/29 08:10:51;;;;;;;26.58;18.05;;;;;;;8.83;100.00;100288.56;5115882;28;20028;-72
2022/09/29 08:13:17;;;;;;;31.73;19.10;;;;;;;9.07;100.00;100295.25;5116307;28;20031;-72
2022/09/29 08:15:42;;;;;;;23.77;16.38;;;;;;;9.38;100.00;100291.56;5115477;28;20031;-71
2022/09/29 08:18:08;;;;;;;28.92;19.42;;;;;;;9.78;100.00;100293.91;5115442;28;20382;-70
2022/09/29 08:20:36;;;;;;;30.77;16.88;;;;;;;10.26;100.00;100291.94;5115707;28;20239;-72
2022/09/29 08:23:02;;;;;;;20.05;13.90;;;;;;;10.66;100.00;100297.81;5115305;28;20032;-72
2022/09/29 08:25:27;;;;;;;19.00;13.77;;;;;;;11.10;100.00;100297.84;5115344;28;20039;-71
2022/09/29 08:27:53;;;;;;;15.02;12.95;;;;;;;11.48;100.00;100306.44;5115871;28;20043;-72
2022/09/29 08:30:19;;;;;;;16.95;12.55;;;;;;;11.88;100.00;100307.59;5115456;28;20072;-71
2022/09/29 08:32:51;;;;;;;16.95;12.38;;;;;;;12.08;100.00;100313.56;5115349;28;20038;-71
2022/09/29 08:35:17;;;;;;;14.95;12.43;;;;;;;12.13;100.00;100307.72;5115094;28;20122;-72
2022/09/29 08:37:42;;;;;;;15.02;11.85;;;;;;;12.12;100.00;100316.72;5115065;28;20067;-71
2022/09/29 08:40:08;;;;;;;16.73;11.63;;;;;;;12.10;100.00;100318.72;5114921;28;20027;-72
2022/09/29 08:42:55;;;;;;;14.82;11.23;;;;;;;12.38;100.00;100329.97;5114858;28;20032;-72
2022/09/29 08:45:41;;;;;;;11.63;9.65;;;;;;;13.17;100.00;100332.19;5114598;28;20028;-72
2022/09/29 08:48:19;;;;;;;14.40;9.77;;;;;;;13.95;100.00;100319.16;5115223;28;20027;-72
2022/09/29 08:51:06;;;;;;;13.50;9.98;;;;;;;15.44;100.00;100323.28;5114975;28;20035;-71
2022/09/29 08:53:37;;;;;;;10.70;8.80;;;;;;;16.70;88.04;100331.25;5115124;28;20463;-72
2022/09/29 08:56:23;;;;;;;;;;;;;;;17.75;79.39;100331.47;5115587;28;20035;-71
2022/09/29 08:58:48;;;;;;;13.23;8.68;;;;;;;18.68;72.77;100333.69;5114484;28;19907;-72
2022/09/29 09:01:27;;;;;;;11.10;8.10;;;;;;;18.95;67.59;100336.44;5113253;28;20383;-72
2022/09/29 09:04:10;;;;;;;9.50;7.75;;;;;;;19.73;68.47;100340.31;5114501;28;20035;-71
2022/09/29 09:06:56;;;;;;;11.25;7.95;;;;;;;19.35;68.09;100335.63;5114523;28;20034;-71
2022/09/29 09:09:45;;;;;;;11.32;8.85;;;;;;;17.96;75.02;100340.53;5114884;28;20027;-71
2022/09/29 09:12:23;;;;;;;9.50;8.50;;;;;;;18.29;74.31;100340.63;5114333;28;20027;-71
2022/09/29 09:15:19;;;;;;;10.55;7.53;;;;;;;19.45;67.55;100343.28;5114483;28;20028;-71
2022/09/29 09:17:51;;;;;;;10.25;7.53;;;;;;;20.57;64.72;100352.06;5114260;28;20429;-71
2022/09/29 09:20:19;;;;;;;13.20;6.95;;;;;;;21.25;60.83;100344.31;5113667;28;20123;-77
2022/09/29 09:22:59;;;;;;;13.63;7.30;;;;;;;21.14;60.23;100343.16;5114148;28;20100;-74
2022/09/29 09:25:29;;;;;;;9.07;6.30;;;;;;;21.42;55.37;100348.09;5113595;28;20028;-75
2022/09/29 09:28:21;;;;;;;7.97;6.70;;;;;;;21.52;54.40;100347.63;5114053;28;20034;-75
2022/09/29 09:31:12;;;;;;;7.68;6.53;;;;;;;21.51;56.67;100342.41;5106909;28;20126;-75
2022/09/29 09:33:51;;;;;;;8.93;6.78;;;;;;;21.93;53.20;100339.88;5113968;28;20034;-76
2022/09/29 09:36:24;;;;;;;7.43;6.10;;;;;;;22.49;51.87;100343.38;5112618;28;20370;-76
2022/09/29 09:39:01;;;;;;;9.32;6.30;;;;;;;22.07;52.68;100341.38;5113759;28;20042;-76
2022/09/29 09:41:29;;;;;;;8.27;5.80;;;;;;;22.05;51.48;100345.38;5114197;28;20059;-75
2022/09/29 09:44:06;;;;;;;12.10;6.32;;;;;;;21.77;52.57;100344.84;5113370;28;20078;-75
2022/09/29 09:46:37;;;;;;;9.25;6.13;;;;;;;21.72;51.83;100344.72;5113636;28;20464;-75
2022/09/29 09:49:18;;;;;;;9.52;5.43;;;;;;;22.31;53.31;100346.91;5113930;28;20096;-75
2022/09/29 09:52:02;;;;;;;11.43;4.88;;;;;;;21.90;48.87;100348.47;5113834;28;20027;-77
2022/09/29 09:54:33;;;;;;;6.97;4.50;;;;;;;22.63;47.76;100350.28;5113381;28;20028;-76
2022/09/29 09:57:43;;;;;;;7.32;4.53;;;;;;;22.92;48.13;100353.16;5113698;28;20080;-75
2022/09/29 10:00:41;;;;;;;4.45;3.70;;;;;;;23.21;44.52;100348.75;5050631;28;20029;-76
2022/09/29 10:03:08;;;;;;;4.82;3.53;;;;;;;22.54;47.73;100348.91;5046994;28;20493;-75
2022/09/29 10:05:38;;;;;;;5.00;3.17;;;;;;;21.92;46.77;100357.19;5093767;28;20048;-75
2022/09/29 10:08:06;;;;;;;4.97;3.35;;;;;;;21.57;49.01;100352.34;5113069;28;20413;-76
2022/09/29 10:10:32;;;;;;;5.57;3.75;;;;;;;21.56;51.67;100354.25;5113531;28;20459;-75
2022/09/29 10:13:07;;;;;;;5.82;3.88;;;;;;;21.39;50.45;100348.56;5113540;28;20119;-74
2022/09/29 10:15:46;;;;;;;3.65;3.17;;;;;;;21.62;50.30;100349.81;5114271;28;20148;-74
2022/09/29 10:18:19;;;;;;;3.45;2.80;;;;;;;21.74;47.86;100352.59;5113579;28;20028;-73
2022/09/29 10:20:45;;;;;;;3.60;3.30;;;;;;;20.59;48.13;100354.53;5113418;28;20147;-73
2022/09/29 10:23:45;;;;;;;4.47;3.13;;;;;;;20.54;49.23;100355.19;5113586;28;20089;-74
2022/09/29 10:26:15;;;;;;;4.20;3.53;;;;;;;20.04;54.23;100357.69;5110560;28;20050;-74
2022/09/29 10:28:46;;;;;;;5.10;3.65;;;;;;;18.73;54.47;100361.88;5113254;28;20045;-73
2022/09/29 10:31:38;;;;;;;7.22;3.20;;;;;;;17.62;56.84;100364.50;5113207;28;20031;-74
2022/09/29 10:34:09;;;;;;;4.65;3.17;;;;;;;16.40;63.99;100368.13;5110527;28;20487;-74
2022/09/29 10:36:47;;;;;;;;;;;;;;;15.67;68.37;100363.44;5113589;28;20489;-77
2022/09/29 10:39:39;;;;;;;6.80;3.17;;;;;;;15.44;79.84;100362.69;5113304;28;19912;-77
2022/09/29 10:42:35;;;;;;;6.20;3.10;;;;;;;15.44;77.15;100362.69;5113755;28;20436;-77
2022/09/29 10:45:11;;;;;;;3.30;2.78;;;;;;;15.36;75.25;100355.56;5099960;28;20138;-78
2022/09/29 10:47:37;;;;;;;5.95;2.53;;;;;;;15.24;78.63;100360.53;5115571;28;20055;-77
2022/09/29 10:50:14;;;;;;;2.63;1.92;;;;;;;15.13;71.71;100366.28;5117018;28;20032;-77
2022/09/29 10:52:48;;;;;;;4.47;1.90;;;;;;;15.04;73.32;100367.38;5116772;28;20059;-76
2022/09/29 10:55:19;;;;;;;2.72;1.25;;;;;;;14.88;69.47;100374.50;5117843;28;20023;-77
2022/09/29 10:57:46;;;;;;;1.95;1.50;;;;;;;14.70;74.45;100366.78;5117492;28;20106;-78
2022/09/29 11:00:33;;;;;;;2.38;1.58;;;;;;;14.76;76.46;100373.28;5118030;28;20464;-76
2022/09/29 11:03:07;;;;;;;2.40;2.20;;;;;;;14.91;73.28;100371.50;5117304;28;20106;-78
2022/09/29 11:05:34;;;;;;;2.55;2.00;;;;;;;14.87;75.71;100366.66;5117488;28;20053;-72
2022/09/29 11:08:00;;;;;;;4.78;2.10;;;;;;;14.79;79.29;100375.59;5117408;28;20032;-73
2022/09/29 11:10:34;;;;;;;3.17;2.28;;;;;;;14.76;77.75;100373.28;5116738;28;20028;-73
2022/09/29 11:13:22;;;;;;;4.47;2.35;;;;;;;14.74;79.19;100376.13;5116958;28;20035;-71
2022/09/29 11:15:48;;;;;;;4.63;2.20;;;;;;;14.70;78.33;100380.16;5117197;28;20118;-73
2022/09/29 11:18:31;;;;;;;2.53;1.70;;;;;;;14.81;77.17;100378.94;5116632;28;20059;-74
2022/09/29 11:21:27;;;;;;;4.00;2.05;;;;;;;14.90;79.21;100382.38;5116665;28;20048;-74
2022/09/29 11:24:09;;;;;;;3.88;1.80;;;;;;;14.96;75.74;100381.69;5116038;28;20053;-73
2022/09/29 11:26:37;;;;;;;3.15;1.45;;;;;;;15.02;71.42;100388.13;5117124;28;20035;-73
2022/09/29 11:29:02;;;;;;;1.70;1.50;;;;;;;15.09;73.92;100383.75;5116571;28;20055;-73
2022/09/29 11:31:33;;;;;;;1.75;1.20;;;;;;;15.17;73.41;100389.03;5116291;28;20062;-73
2022/09/29 11:34:17;;;;;;;;;;;;;;;15.25;67.94;100388.13;5116853;28;20039;-73
2022/09/29 11:37:15;;;;;;;0.98;0.95;;;;;;;15.32;70.52;100394.44;5116652;28;19927;-73
2022/09/29 11:40:02;;;;;;;2.08;1.00;;;;;;;15.37;65.72;100392.03;5116207;28;20042;-72